D/T METAR WX W/DIR W/SPE G/SPE TEMP DEWP
16/01/19 03:20 EGNT 160320Z 23011KT 9999 SCT040 09/05 Q0998 SW (230°) 12.7mph 9°C 5°C
16/01/19 02:50 EGNT 160250Z 23011KT 200V270 9999 SCT045 09/05 Q0999 SW (230°) 12.7mph 9°C 5°C
16/01/19 02:20 EGNT 160220Z 23012KT 180V270 9999 SCT025 09/05 Q0999 SW (230°) 13.8mph 9°C 5°C
16/01/19 01:50 EGNT 160150Z 23011KT 190V260 9999 FEW024 BKN048 09/05 Q1000 SW (230°) 12.7mph 9°C 5°C
16/01/19 01:20 EGNT 160120Z 23010KT 210V270 9999 FEW024 BKN048 09/05 Q1000 SW (230°) 11.5mph 9°C 5°C
16/01/19 00:20 EGNT 160020Z 23012KT 200V260 9999 SCT040 09/05 Q1001 SW (230°) 13.8mph 9°C 5°C
15/01/19 23:50 EGNT 152350Z 23013KT 9999 FEW038 09/05 Q1002 SW (230°) 15.0mph 9°C 5°C
15/01/19 23:20 EGNT 152320Z 24012KT 9999 FEW038 08/05 Q1002 WSW (240°) 13.8mph 8°C 5°C
15/01/19 22:20 EGNT 152220Z 23011KT 190V250 9999 FEW040 08/04 Q1003 SW (230°) 12.7mph 8°C 4°C
15/01/19 21:50 EGNT 152150Z 23013KT 9999 SCT042 09/05 Q1003 SW (230°) 15.0mph 9°C 5°C
15/01/19 21:20 EGNT 152120Z 23014KT 9999 SCT042 09/05 Q1004 SW (230°) 16.1mph 9°C 5°C
15/01/19 20:50 EGNT 152050Z 23012KT 200V260 9999 FEW018 SCT040 09/05 Q1004 SW (230°) 13.8mph 9°C 5°C
15/01/19 20:20 EGNT 152020Z 23011KT 9999 FEW012 SCT032 08/04 Q1005 SW (230°) 12.7mph 8°C 4°C
15/01/19 19:50 EGNT 151950Z 22009KT 190V250 9999 SCT030 08/04 Q1005 SW (220°) 10.4mph 8°C 4°C
15/01/19 19:20 EGNT 151920Z 22007KT 150V250 9999 SCT038 08/04 Q1006 SW (220°) 8.1mph 8°C 4°C
15/01/19 18:50 EGNT 151850Z 22008KT 190V250 9999 FEW027 SCT036 08/04 Q1006 SW (220°) 9.2mph 8°C 4°C
15/01/19 18:20 EGNT 151820Z 23010KT 190V270 9999 FEW027 BKN036 08/04 Q1007 SW (230°) 11.5mph 8°C 4°C
15/01/19 17:50 EGNT 151750Z 24012KT 9999 FEW027 SCT036 08/03 Q1007 WSW (240°) 13.8mph 8°C 3°C
15/01/19 16:50 EGNT 151650Z 26007KT 9999 SCT041 08/03 Q1008 W (260°) 8.1mph 8°C 3°C
15/01/19 16:20 EGNT 151620Z 26010KT 9999 FEW035 SCT046 08/03 Q1008 W (260°) 11.5mph 8°C 3°C
15/01/19 15:20 EGNT 151520Z 25010KT 210V270 9999 FEW033 09/03 Q1008 WSW (250°) 11.5mph 9°C 3°C
15/01/19 14:50 EGNT 151450Z 26016KT 220V290 9999 FEW030 10/04 Q1008 W (260°) 18.4mph 10°C 4°C
15/01/19 14:20 EGNT 151420Z 26020KT 9999 FEW030 10/04 Q1008 W (260°) 23.0mph 10°C 4°C
15/01/19 13:50 EGNT 151350Z 26022KT 9999 FEW030 10/04 Q1009 W (260°) 25.3mph 10°C 4°C
15/01/19 13:20 EGNT 151320Z 27027KT 9999 FEW042 10/04 Q1009 W (270°) 31.1mph 10°C 4°C
15/01/19 12:50 EGNT 151250Z 26025G35KT 9999 FEW020 10/05 Q1008 W (260°) 28.8mph 40.3mph 10°C 5°C
15/01/19 12:20 EGNT 151220Z 27023KT 9999 FEW020 10/05 Q1009 W (270°) 26.5mph 10°C 5°C
15/01/19 11:50 EGNT 151150Z 26018KT 9999 SCT018 09/06 Q1010 W (260°) 20.7mph 9°C 6°C
15/01/19 11:20 EGNT 151120Z 26015KT 9999 SCT017 09/06 Q1010 W (260°) 17.3mph 9°C 6°C
15/01/19 10:50 EGNT 151050Z 26015KT 9999 SCT017 09/06 Q1011 W (260°) 17.3mph 9°C 6°C
15/01/19 10:20 EGNT 151020Z 26013KT 9999 BKN012 09/06 Q1011 W (260°) 15.0mph 9°C 6°C
15/01/19 09:50 EGNT 150950Z 26013KT 9999 BKN012 09/06 Q1012 W (260°) 15.0mph 9°C 6°C
15/01/19 09:20 EGNT 150920Z 26015KT 9999 BKN012 09/06 Q1011 W (260°) 17.3mph 9°C 6°C
15/01/19 08:50 EGNT 150850Z 26015KT 9999 BKN012 09/06 Q1011 W (260°) 17.3mph 9°C 6°C
15/01/19 08:20 EGNT 150820Z 26014KT 9999 BKN012 09/06 Q1011 W (260°) 16.1mph 9°C 6°C
15/01/19 07:50 EGNT 150750Z 25015KT 9999 SCT012 09/06 Q1011 WSW (250°) 17.3mph 9°C 6°C
15/01/19 07:20 EGNT 150720Z 25016KT 9999 SCT012 09/06 Q1011 WSW (250°) 18.4mph 9°C 6°C
15/01/19 06:50 EGNT 150650Z 25014KT 9999 SCT014 09/06 Q1011 WSW (250°) 16.1mph 9°C 6°C
15/01/19 06:20 EGNT 150620Z 25019KT 9999 SCT014 09/06 Q1010 WSW (250°) 21.9mph 9°C 6°C
15/01/19 05:50 EGNT 150550Z 26020KT 9999 FEW014 08/06 Q1011 W (260°) 23.0mph 8°C 6°C
15/01/19 05:20 EGNT 150520Z 26024KT 9999 FEW015 08/06 Q1010 W (260°) 27.6mph 8°C 6°C
15/01/19 04:50 EGNT 150450Z 26022KT 9999 FEW015 08/05 Q1011 W (260°) 25.3mph 8°C 5°C
15/01/19 03:50 EGNT 150350Z 26022KT 9999 FEW018 08/05 Q1012 W (260°) 25.3mph 8°C 5°C
15/01/19 03:20 EGNT 150320Z 26024KT 9999 BKN015 08/05 Q1012 W (260°) 27.6mph 8°C 5°C
15/01/19 02:50 EGNT 150250Z 26021KT 9999 BKN015 08/06 Q1012 W (260°) 24.2mph 8°C 6°C
15/01/19 02:20 EGNT 150220Z 26020KT 9999 BKN015 08/06 Q1013 W (260°) 23.0mph 8°C 6°C
15/01/19 01:20 EGNT 150120Z 26015KT 9999 BKN014 08/06 Q1014 W (260°) 17.3mph 8°C 6°C
15/01/19 00:20 EGNT 150020Z 25017KT 9999 BKN014 08/06 Q1014 WSW (250°) 19.6mph 8°C 6°C
14/01/19 23:50 EGNT 142350Z 25016KT 9999 BKN014 08/06 Q1014 WSW (250°) 18.4mph 8°C 6°C
14/01/19 23:20 EGNT 142320Z 25011KT 9999 BKN012 07/05 Q1015 WSW (250°) 12.7mph 7°C 5°C
14/01/19 22:50 EGNT 142250Z 25013KT 9999 BKN014 07/05 Q1015 WSW (250°) 15.0mph 7°C 5°C
14/01/19 22:20 EGNT 142220Z 24012KT 9999 BKN015 07/05 Q1015 WSW (240°) 13.8mph 7°C 5°C
14/01/19 21:50 EGNT 142150Z 25014KT 9999 SCT015 07/04 Q1016 WSW (250°) 16.1mph 7°C 4°C
14/01/19 21:20 EGNT 142120Z 25011KT 9999 SCT015 07/04 Q1016 WSW (250°) 12.7mph 7°C 4°C
14/01/19 20:50 EGNT 142050Z 25007KT 9999 BKN015 07/05 Q1017 WSW (250°) 8.1mph 7°C 5°C
14/01/19 19:50 EGNT 141950Z 25006KT 9999 FEW014 SCT024 06/04 Q1017 WSW (250°) 6.9mph 6°C 4°C
14/01/19 19:20 EGNT 141920Z VRB01KT 9999 FEW015 SCT024 06/03 Q1017 N (0°) 1.2mph 6°C 3°C
14/01/19 18:50 EGNT 141850Z VRB03KT 9999 SCT030 05/03 Q1017 N (0°) 3.5mph 5°C 3°C
14/01/19 18:20 EGNT 141820Z VRB02KT 9999 FEW030 05/03 Q1017 N (0°) 2.3mph 5°C 3°C
14/01/19 17:50 EGNT 141750Z 25006KT 9999 FEW025 05/03 Q1017 WSW (250°) 6.9mph 5°C 3°C
14/01/19 16:50 EGNT 141650Z 24008KT 9999 FEW028 05/03 Q1017 WSW (240°) 9.2mph 5°C 3°C
14/01/19 16:20 EGNT 141620Z 24008KT 9999 FEW025 05/03 Q1018 WSW (240°) 9.2mph 5°C 3°C
14/01/19 15:50 EGNT 141550Z 24006KT 9999 FEW025 05/03 Q1018 WSW (240°) 6.9mph 5°C 3°C
14/01/19 15:20 EGNT 141520Z 21005KT 180V250 9999 FEW025 05/02 Q1018 SSW (210°) 5.8mph 5°C 2°C
14/01/19 14:50 EGNT 141450Z 19003KT CAVOK 05/03 Q1018 S (190°) 3.5mph 5°C 3°C
14/01/19 14:20 EGNT 141420Z 20003KT CAVOK 05/02 Q1018 SSW (200°) 3.5mph 5°C 2°C
14/01/19 13:50 EGNT 141350Z VRB03KT 9999 FEW010 05/03 Q1018 N (0°) 3.5mph 5°C 3°C
14/01/19 13:20 EGNT 141320Z 22005KT 190V250 9999 FEW011 06/03 Q1019 SW (220°) 5.8mph 6°C 3°C
14/01/19 12:50 EGNT 141250Z VRB03KT 9999 FEW011 06/03 Q1019 N (0°) 3.5mph 6°C 3°C
14/01/19 12:20 EGNT 141220Z VRB03KT 9999 SCT014 05/03 Q1019 N (0°) 3.5mph 5°C 3°C
14/01/19 11:50 EGNT 141150Z 24004KT 9999 FEW016 04/02 Q1019 WSW (240°) 4.6mph 4°C 2°C
14/01/19 11:20 EGNT 141120Z 26003KT 9999 FEW018 03/02 Q1019 W (260°) 3.5mph 3°C 2°C
14/01/19 10:50 EGNT 141050Z 27004KT 9999 FEW018 04/03 Q1019 W (270°) 4.6mph 4°C 3°C
14/01/19 10:20 EGNT 141020Z 30003KT 9999 FEW015 04/03 Q1019 WNW (300°) 3.5mph 4°C 3°C
14/01/19 09:50 EGNT 140950Z 30004KT 9999 FEW017 03/02 Q1019 WNW (300°) 4.6mph 3°C 2°C
14/01/19 09:20 EGNT 140920Z 33004KT 9999 FEW017 03/02 Q1019 NNW (330°) 4.6mph 3°C 2°C
14/01/19 08:50 EGNT 140850Z 31004KT 9999 SCT020 03/02 Q1018 NW (310°) 4.6mph 3°C 2°C
14/01/19 08:20 EGNT 140820Z 33004KT 9999 SCT023 03/03 Q1018 NNW (330°) 4.6mph 3°C 3°C
14/01/19 07:50 EGNT 140750Z 34004KT 9999 SCT016 BKN023 03/03 Q1017 NNW (340°) 4.6mph 3°C 3°C
14/01/19 07:20 EGNT 140720Z 31004KT 9999 -RA BKN018 04/03 Q1017 -RA NW (310°) 4.6mph 4°C 3°C
14/01/19 06:50 EGNT 140650Z 32004KT 9999 -RA BKN018 04/03 Q1016 -RA NW (320°) 4.6mph 4°C 3°C
14/01/19 06:20 EGNT 140620Z 32004KT 9999 -RA FEW010 BKN028 03/03 Q1016 -RA NW (320°) 4.6mph 3°C 3°C
14/01/19 05:50 EGNT 140550Z 35004KT 9999 -RA BKN010 04/03 Q1016 -RA N (350°) 4.6mph 4°C 3°C
14/01/19 05:20 EGNT 140520Z 34005KT 9999 -RA FEW010 BKN018 04/03 Q1016 -RA NNW (340°) 5.8mph 4°C 3°C
14/01/19 04:50 EGNT 140450Z 34007KT 9999 -RA FEW010 BKN018 04/03 Q1015 -RA NNW (340°) 8.1mph 4°C 3°C
14/01/19 04:20 EGNT 140420Z 32006KT 9999 -RA SCT015 05/03 Q1015 -RA NW (320°) 6.9mph 5°C 3°C
14/01/19 02:50 EGNT 140250Z 29008KT 9999 FEW030 05/02 Q1013 WNW (290°) 9.2mph 5°C 2°C
14/01/19 01:50 EGNT 140150Z 26007KT 9999 FEW040 05/02 Q1012 W (260°) 8.1mph 5°C 2°C
14/01/19 00:50 EGNT 140050Z 28012KT 9999 FEW035 05/02 Q1011 W (280°) 13.8mph 5°C 2°C
14/01/19 00:20 EGNT 140020Z 29011KT 9999 FEW035 06/02 Q1010 WNW (290°) 12.7mph 6°C 2°C
13/01/19 23:50 EGNT 132350Z 28012KT 9999 FEW035 06/02 Q1010 W (280°) 13.8mph 6°C 2°C
13/01/19 23:20 EGNT 132320Z 29012KT 9999 FEW035 06/02 Q1010 WNW (290°) 13.8mph 6°C 2°C
13/01/19 22:50 EGNT 132250Z 29012KT 9999 FEW030 06/02 Q1009 WNW (290°) 13.8mph 6°C 2°C
13/01/19 22:20 EGNT 132220Z 29013KT 9999 FEW030 06/02 Q1009 WNW (290°) 15.0mph 6°C 2°C
13/01/19 21:50 EGNT 132150Z 27013KT 9999 FEW030 06/01 Q1008 W (270°) 15.0mph 6°C 1°C
13/01/19 20:50 EGNT 132050Z 28013KT 9999 FEW030 06/01 Q1008 W (280°) 15.0mph 6°C 1°C
13/01/19 20:20 EGNT 132020Z 27014KT 9999 FEW030 06/02 Q1007 W (270°) 16.1mph 6°C 2°C
13/01/19 19:20 EGNT 131920Z 28016KT 9999 FEW030 07/01 Q1007 W (280°) 18.4mph 7°C 1°C
13/01/19 18:50 EGNT 131850Z 29016KT 9999 FEW030 07/01 Q1006 WNW (290°) 18.4mph 7°C 1°C
13/01/19 18:20 EGNT 131820Z 28017KT 9999 FEW035 07/01 Q1006 W (280°) 19.6mph 7°C 1°C
13/01/19 17:20 EGNT 131720Z 28014KT 9999 SCT035 07/02 Q1005 W (280°) 16.1mph 7°C 2°C
13/01/19 16:50 EGNT 131650Z 28020KT 9999 FEW035 08/02 Q1005 W (280°) 23.0mph 8°C 2°C
13/01/19 16:20 EGNT 131620Z 28015KT 9999 FEW033 08/03 Q1005 W (280°) 17.3mph 8°C 3°C
13/01/19 15:50 EGNT 131550Z 28018KT 9999 FEW035 08/02 Q1005 W (280°) 20.7mph 8°C 2°C
13/01/19 14:50 EGNT 131450Z 29017KT 9999 FEW040 09/03 Q1004 WNW (290°) 19.6mph 9°C 3°C
13/01/19 14:20 EGNT 131420Z 29020KT 9999 FEW042 10/02 Q1004 WNW (290°) 23.0mph 10°C 2°C
13/01/19 13:50 EGNT 131350Z 29021KT 9999 FEW043 10/02 Q1004 WNW (290°) 24.2mph 10°C 2°C
13/01/19 13:20 EGNT 131320Z 30019KT 9999 FEW037 10/02 Q1004 WNW (300°) 21.9mph 10°C 2°C
13/01/19 12:50 EGNT 131250Z 30017KT 9999 SCT032 10/04 Q1004 WNW (300°) 19.6mph 10°C 4°C
13/01/19 12:20 EGNT 131220Z 28013KT 9999 SCT035 10/04 Q1004 W (280°) 15.0mph 10°C 4°C
13/01/19 11:20 EGNT 131120Z 27017KT 9999 SCT040 10/05 Q1004 W (270°) 19.6mph 10°C 5°C
13/01/19 10:50 EGNT 131050Z 27021G31KT 9999 SCT040 11/05 Q1004 W (270°) 24.2mph 35.7mph 11°C 5°C
13/01/19 10:20 EGNT 131020Z 28021G35KT 9999 SCT032 11/06 Q1003 W (280°) 24.2mph 40.3mph 11°C 6°C
13/01/19 09:50 EGNT 130950Z 26023KT 9999 FEW022 10/07 Q1003 W (260°) 26.5mph 10°C 7°C
13/01/19 09:20 EGNT 130920Z 26019G30KT 9999 FEW015 10/07 Q1003 W (260°) 21.9mph 34.5mph 10°C 7°C
13/01/19 08:50 EGNT 130850Z 26019KT 9999 SCT015 09/07 Q1004 W (260°) 21.9mph 9°C 7°C
13/01/19 08:20 EGNT 130820Z 26020G32KT 9999 SCT015 09/07 Q1004 W (260°) 23.0mph 36.8mph 9°C 7°C
13/01/19 07:50 EGNT 130750Z 26022KT 9999 BKN015 10/07 Q1005 W (260°) 25.3mph 10°C 7°C
13/01/19 07:20 EGNT 130720Z 27022KT 9999 BKN015 10/07 Q1005 W (270°) 25.3mph 10°C 7°C
13/01/19 06:50 EGNT 130650Z 27020KT 9999 BKN012 10/07 Q1005 W (270°) 23.0mph 10°C 7°C
13/01/19 06:20 EGNT 130620Z 27019KT 9999 BKN012 10/07 Q1006 W (270°) 21.9mph 10°C 7°C
13/01/19 05:50 EGNT 130550Z 27023KT 9999 BKN010 09/07 Q1006 W (270°) 26.5mph 9°C 7°C
13/01/19 05:20 EGNT 130520Z 27021KT 9999 BKN010 09/07 Q1007 W (270°) 24.2mph 9°C 7°C
13/01/19 04:50 EGNT 130450Z 27022G34KT 9999 BKN015 09/07 Q1006 W (270°) 25.3mph 39.1mph 9°C 7°C
13/01/19 04:20 EGNT 130420Z 27022KT 9999 BKN015 09/07 Q1007 W (270°) 25.3mph 9°C 7°C
13/01/19 03:50 EGNT 130350Z 27026G36KT 9999 BKN015 10/07 Q1007 W (270°) 29.9mph 41.4mph 10°C 7°C
13/01/19 02:50 EGNT 130250Z 26028G41KT 9999 BKN012 10/07 Q1007 W (260°) 32.2mph 47.2mph 10°C 7°C
13/01/19 02:20 EGNT 130220Z 26028KT 9999 BKN014 09/07 Q1007 W (260°) 32.2mph 9°C 7°C
13/01/19 01:50 EGNT 130150Z 27030G46KT 9999 BKN014 10/07 Q1007 W (270°) 34.5mph 52.9mph 10°C 7°C
13/01/19 00:50 EGNT 130050Z 27026KT 9999 BKN012 10/07 Q1009 W (270°) 29.9mph 10°C 7°C
13/01/19 00:20 EGNT 130020Z 26020G30KT 9999 BKN012 10/07 Q1010 W (260°) 23.0mph 34.5mph 10°C 7°C
12/01/19 23:50 EGNT 122350Z 27024KT 9999 BKN012 10/07 Q1010 W (270°) 27.6mph 10°C 7°C
12/01/19 23:20 EGNT 122320Z 26027KT 9999 BKN010 10/08 Q1010 W (260°) 31.1mph 10°C 8°C
12/01/19 22:50 EGNT 122250Z 27025KT 9999 BKN010 10/08 Q1010 W (270°) 28.8mph 10°C 8°C
12/01/19 22:20 EGNT 122220Z 27024G34KT 9999 BKN010 10/08 Q1010 W (270°) 27.6mph 39.1mph 10°C 8°C
12/01/19 21:50 EGNT 122150Z 26023KT 9999 BKN010 10/08 Q1010 W (260°) 26.5mph 10°C 8°C
12/01/19 21:20 EGNT 122120Z 26025KT 9999 SCT010 10/08 Q1010 W (260°) 28.8mph 10°C 8°C
12/01/19 20:50 EGNT 122050Z 27022KT 9999 SCT010 10/08 Q1011 W (270°) 25.3mph 10°C 8°C
12/01/19 20:20 EGNT 122020Z 26024G34KT 9999 FEW010 10/08 Q1011 W (260°) 27.6mph 39.1mph 10°C 8°C
12/01/19 19:50 EGNT 121950Z 27020KT 9999 -RA SCT012 10/08 Q1012 -RA W (270°) 23.0mph 10°C 8°C
12/01/19 19:20 EGNT 121920Z 27015KT 9999 -RA SCT012 10/08 Q1011 -RA W (270°) 17.3mph 10°C 8°C
12/01/19 18:50 EGNT 121850Z 27020KT 9999 -RA SCT010 10/08 Q1012 -RA W (270°) 23.0mph 10°C 8°C
12/01/19 18:20 EGNT 121820Z 27020KT 9999 -SHRA SCT010 10/08 Q1012 -SHRA W (270°) 23.0mph 10°C 8°C
12/01/19 17:50 EGNT 121750Z 27016KT 9999 SCT010 09/07 Q1011 W (270°) 18.4mph 9°C 7°C